sensor_id;sensor_type;location;lat;lon;timestamp;P1;durP1;ratioP1;P2;durP2;ratioP2
65879;SDS011;52661;51.364;6.054;2022-09-30T00:01:19;9.02;;;4.25;;
65879;SDS011;52661;51.364;6.054;2022-09-30T00:03:45;9.98;;;4.38;;
65879;SDS011;52661;51.364;6.054;2022-09-30T00:06:12;9.60;;;4.07;;
65879;SDS011;52661;51.364;6.054;2022-09-30T00:08:37;8.82;;;4.32;;
65879;SDS011;52661;51.364;6.054;2022-09-30T00:11:04;7.32;;;3.30;;
65879;SDS011;52661;51.364;6.054;2022-09-30T00:13:33;8.02;;;4.10;;
65879;SDS011;52661;51.364;6.054;2022-09-30T00:16:00;6.80;;;3.22;;
65879;SDS011;52661;51.364;6.054;2022-09-30T00:18:28;9.48;;;3.85;;
65879;SDS011;52661;51.364;6.054;2022-09-30T00:20:55;8.90;;;3.60;;
65879;SDS011;52661;51.364;6.054;2022-09-30T00:23:21;10.07;;;3.88;;
65879;SDS011;52661;51.364;6.054;2022-09-30T00:25:47;8.23;;;3.42;;
65879;SDS011;52661;51.364;6.054;2022-09-30T00:28:13;6.78;;;3.40;;
65879;SDS011;52661;51.364;6.054;2022-09-30T00:30:39;6.90;;;3.38;;
65879;SDS011;52661;51.364;6.054;2022-09-30T00:33:05;7.50;;;3.15;;
65879;SDS011;52661;51.364;6.054;2022-09-30T00:35:30;9.37;;;3.07;;
65879;SDS011;52661;51.364;6.054;2022-09-30T00:37:56;8.65;;;3.65;;
65879;SDS011;52661;51.364;6.054;2022-09-30T00:40:21;6.67;;;2.80;;
65879;SDS011;52661;51.364;6.054;2022-09-30T00:42:46;7.10;;;3.28;;
65879;SDS011;52661;51.364;6.054;2022-09-30T00:45:13;8.60;;;3.47;;
65879;SDS011;52661;51.364;6.054;2022-09-30T00:55:28;10.10;;;3.42;;
65879;SDS011;52661;51.364;6.054;2022-09-30T00:57:58;8.82;;;3.42;;
65879;SDS011;52661;51.364;6.054;2022-09-30T01:00:25;8.18;;;3.42;;
65879;SDS011;52661;51.364;6.054;2022-09-30T01:02:51;6.15;;;3.42;;
65879;SDS011;52661;51.364;6.054;2022-09-30T01:05:18;7.55;;;3.55;;
65879;SDS011;52661;51.364;6.054;2022-09-30T01:07:44;8.02;;;3.38;;
65879;SDS011;52661;51.364;6.054;2022-09-30T01:10:11;10.82;;;3.58;;
65879;SDS011;52661;51.364;6.054;2022-09-30T01:12:36;9.63;;;3.28;;
65879;SDS011;52661;51.364;6.054;2022-09-30T01:15:03;8.05;;;3.80;;
65879;SDS011;52661;51.364;6.054;2022-09-30T01:17:37;8.57;;;3.65;;
65879;SDS011;52661;51.364;6.054;2022-09-30T01:25:58;5.53;;;2.78;;
65879;SDS011;52661;51.364;6.054;2022-09-30T01:31:50;5.55;;;3.75;;
65879;SDS011;52661;51.364;6.054;2022-09-30T01:37:14;9.30;;;3.67;;
65879;SDS011;52661;51.364;6.054;2022-09-30T01:40:00;7.55;;;3.25;;
65879;SDS011;52661;51.364;6.054;2022-09-30T01:42:34;6.78;;;2.97;;
65879;SDS011;52661;51.364;6.054;2022-09-30T01:45:42;5.72;;;3.13;;
65879;SDS011;52661;51.364;6.054;2022-09-30T01:48:16;7.28;;;3.72;;
65879;SDS011;52661;51.364;6.054;2022-09-30T01:51:03;13.05;;;3.40;;
65879;SDS011;52661;51.364;6.054;2022-09-30T01:53:50;7.47;;;4.28;;
65879;SDS011;52661;51.364;6.054;2022-09-30T01:56:26;9.18;;;3.80;;
65879;SDS011;52661;51.364;6.054;2022-09-30T01:59:01;6.82;;;3.72;;
65879;SDS011;52661;51.364;6.054;2022-09-30T02:01:36;8.23;;;4.35;;
65879;SDS011;52661;51.364;6.054;2022-09-30T02:04:11;7.75;;;3.65;;
65879;SDS011;52661;51.364;6.054;2022-09-30T02:06:44;6.60;;;3.22;;
65879;SDS011;52661;51.364;6.054;2022-09-30T02:09:21;8.32;;;3.83;;
65879;SDS011;52661;51.364;6.054;2022-09-30T02:11:52;6.88;;;3.50;;
65879;SDS011;52661;51.364;6.054;2022-09-30T02:17:13;7.30;;;3.58;;
65879;SDS011;52661;51.364;6.054;2022-09-30T02:19:46;7.35;;;3.72;;
65879;SDS011;52661;51.364;6.054;2022-09-30T02:22:19;8.25;;;3.72;;
65879;SDS011;52661;51.364;6.054;2022-09-30T02:24:49;6.32;;;3.45;;
65879;SDS011;52661;51.364;6.054;2022-09-30T02:27:39;7.20;;;3.28;;
65879;SDS011;52661;51.364;6.054;2022-09-30T02:30:09;6.72;;;3.65;;
65879;SDS011;52661;51.364;6.054;2022-09-30T02:32:39;8.63;;;4.38;;
65879;SDS011;52661;51.364;6.054;2022-09-30T02:35:16;9.85;;;3.90;;
65879;SDS011;52661;51.364;6.054;2022-09-30T02:37:58;11.52;;;4.63;;
65879;SDS011;52661;51.364;6.054;2022-09-30T02:43:06;6.60;;;2.92;;
65879;SDS011;52661;51.364;6.054;2022-09-30T02:45:40;7.30;;;3.50;;
65879;SDS011;52661;51.364;6.054;2022-09-30T02:48:33;7.53;;;4.18;;
65879;SDS011;52661;51.364;6.054;2022-09-30T02:51:17;6.78;;;3.60;;
65879;SDS011;52661;51.364;6.054;2022-09-30T02:53:52;8.80;;;3.63;;
65879;SDS011;52661;51.364;6.054;2022-09-30T02:57:00;6.68;;;3.58;;
65879;SDS011;52661;51.364;6.054;2022-09-30T02:59:22;7.80;;;4.03;;
65879;SDS011;52661;51.364;6.054;2022-09-30T03:01:49;7.88;;;3.65;;
65879;SDS011;52661;51.364;6.054;2022-09-30T03:04:17;10.00;;;3.67;;
65879;SDS011;52661;51.364;6.054;2022-09-30T03:06:46;8.50;;;4.00;;
65879;SDS011;52661;51.364;6.054;2022-09-30T03:09:11;7.93;;;3.85;;
65879;SDS011;52661;51.364;6.054;2022-09-30T03:11:37;7.78;;;3.67;;
65879;SDS011;52661;51.364;6.054;2022-09-30T03:14:09;5.83;;;3.73;;
65879;SDS011;52661;51.364;6.054;2022-09-30T03:25:32;7.32;;;3.95;;
65879;SDS011;52661;51.364;6.054;2022-09-30T03:30:41;5.55;;;2.70;;
65879;SDS011;52661;51.364;6.054;2022-09-30T03:33:31;6.15;;;2.75;;
65879;SDS011;52661;51.364;6.054;2022-09-30T03:36:11;5.68;;;2.97;;
65879;SDS011;52661;51.364;6.054;2022-09-30T03:38:50;10.60;;;3.42;;
65879;SDS011;52661;51.364;6.054;2022-09-30T03:44:13;7.30;;;3.63;;
65879;SDS011;52661;51.364;6.054;2022-09-30T03:49:45;6.60;;;3.50;;
65879;SDS011;52661;51.364;6.054;2022-09-30T03:52:14;8.50;;;3.88;;
65879;SDS011;52661;51.364;6.054;2022-09-30T03:54:50;9.25;;;3.35;;
65879;SDS011;52661;51.364;6.054;2022-09-30T03:57:18;8.73;;;3.60;;
65879;SDS011;52661;51.364;6.054;2022-09-30T03:59:44;6.20;;;3.70;;
65879;SDS011;52661;51.364;6.054;2022-09-30T04:02:09;8.30;;;3.90;;
65879;SDS011;52661;51.364;6.054;2022-09-30T04:04:37;7.82;;;4.03;;
65879;SDS011;52661;51.364;6.054;2022-09-30T04:07:04;6.70;;;3.50;;
65879;SDS011;52661;51.364;6.054;2022-09-30T04:09:30;5.93;;;3.58;;
65879;SDS011;52661;51.364;6.054;2022-09-30T04:11:55;9.57;;;4.13;;
65879;SDS011;52661;51.364;6.054;2022-09-30T04:14:20;7.33;;;4.30;;
65879;SDS011;52661;51.364;6.054;2022-09-30T04:16:46;8.43;;;3.87;;
65879;SDS011;52661;51.364;6.054;2022-09-30T04:19:11;8.35;;;3.83;;
65879;SDS011;52661;51.364;6.054;2022-09-30T04:21:36;7.10;;;3.07;;
65879;SDS011;52661;51.364;6.054;2022-09-30T04:24:02;8.67;;;3.67;;
65879;SDS011;52661;51.364;6.054;2022-09-30T04:26:27;9.15;;;3.80;;
65879;SDS011;52661;51.364;6.054;2022-09-30T04:28:52;7.70;;;3.78;;
65879;SDS011;52661;51.364;6.054;2022-09-30T04:31:22;8.75;;;4.38;;
65879;SDS011;52661;51.364;6.054;2022-09-30T04:33:47;9.95;;;4.28;;
65879;SDS011;52661;51.364;6.054;2022-09-30T04:36:13;7.93;;;4.40;;
65879;SDS011;52661;51.364;6.054;2022-09-30T04:38:38;8.03;;;4.10;;
65879;SDS011;52661;51.364;6.054;2022-09-30T04:41:04;6.97;;;3.80;;
65879;SDS011;52661;51.364;6.054;2022-09-30T04:43:30;7.60;;;3.75;;
65879;SDS011;52661;51.364;6.054;2022-09-30T04:45:57;8.60;;;4.47;;
65879;SDS011;52661;51.364;6.054;2022-09-30T04:48:23;8.20;;;4.10;;
65879;SDS011;52661;51.364;6.054;2022-09-30T04:50:48;9.27;;;3.72;;
65879;SDS011;52661;51.364;6.054;2022-09-30T04:53:14;6.72;;;3.47;;
65879;SDS011;52661;51.364;6.054;2022-09-30T04:55:41;7.82;;;3.83;;
65879;SDS011;52661;51.364;6.054;2022-09-30T04:58:07;7.72;;;3.38;;
65879;SDS011;52661;51.364;6.054;2022-09-30T05:00:32;9.55;;;3.97;;
65879;SDS011;52661;51.364;6.054;2022-09-30T05:02:58;7.28;;;4.22;;
65879;SDS011;52661;51.364;6.054;2022-09-30T05:05:23;6.57;;;3.57;;
65879;SDS011;52661;51.364;6.054;2022-09-30T05:07:48;7.15;;;3.90;;
65879;SDS011;52661;51.364;6.054;2022-09-30T05:10:14;8.20;;;3.27;;
65879;SDS011;52661;51.364;6.054;2022-09-30T05:12:40;6.53;;;3.15;;
65879;SDS011;52661;51.364;6.054;2022-09-30T05:15:06;6.63;;;3.13;;
65879;SDS011;52661;51.364;6.054;2022-09-30T05:17:32;8.27;;;3.30;;
65879;SDS011;52661;51.364;6.054;2022-09-30T05:19:58;6.03;;;3.45;;
65879;SDS011;52661;51.364;6.054;2022-09-30T05:22:24;8.07;;;4.15;;
65879;SDS011;52661;51.364;6.054;2022-09-30T05:24:50;7.20;;;3.83;;
65879;SDS011;52661;51.364;6.054;2022-09-30T05:27:16;7.13;;;3.63;;
65879;SDS011;52661;51.364;6.054;2022-09-30T05:29:42;9.10;;;4.05;;
65879;SDS011;52661;51.364;6.054;2022-09-30T05:32:08;8.65;;;3.97;;
65879;SDS011;52661;51.364;6.054;2022-09-30T05:34:34;8.43;;;4.18;;
65879;SDS011;52661;51.364;6.054;2022-09-30T05:36:59;8.67;;;3.83;;
65879;SDS011;52661;51.364;6.054;2022-09-30T05:39:25;9.10;;;3.95;;
65879;SDS011;52661;51.364;6.054;2022-09-30T05:41:50;8.53;;;3.63;;
65879;SDS011;52661;51.364;6.054;2022-09-30T05:44:16;12.13;;;3.90;;
65879;SDS011;52661;51.364;6.054;2022-09-30T05:46:42;8.10;;;3.63;;
65879;SDS011;52661;51.364;6.054;2022-09-30T05:49:07;7.43;;;3.45;;
65879;SDS011;52661;51.364;6.054;2022-09-30T05:51:33;9.25;;;4.53;;
65879;SDS011;52661;51.364;6.054;2022-09-30T05:53:58;8.18;;;3.80;;
65879;SDS011;52661;51.364;6.054;2022-09-30T05:56:23;13.23;;;4.47;;
65879;SDS011;52661;51.364;6.054;2022-09-30T05:58:49;9.15;;;5.00;;
65879;SDS011;52661;51.364;6.054;2022-09-30T06:01:15;11.57;;;4.10;;
65879;SDS011;52661;51.364;6.054;2022-09-30T06:03:41;12.52;;;5.15;;
65879;SDS011;52661;51.364;6.054;2022-09-30T06:06:07;10.65;;;4.80;;
65879;SDS011;52661;51.364;6.054;2022-09-30T06:08:34;10.80;;;4.75;;
65879;SDS011;52661;51.364;6.054;2022-09-30T06:10:59;12.50;;;4.83;;
65879;SDS011;52661;51.364;6.054;2022-09-30T06:13:25;12.23;;;4.80;;
65879;SDS011;52661;51.364;6.054;2022-09-30T06:15:55;14.02;;;5.15;;
65879;SDS011;52661;51.364;6.054;2022-09-30T06:18:24;10.70;;;5.10;;
65879;SDS011;52661;51.364;6.054;2022-09-30T06:20:51;13.60;;;5.28;;
65879;SDS011;52661;51.364;6.054;2022-09-30T06:23:18;10.48;;;4.97;;
65879;SDS011;52661;51.364;6.054;2022-09-30T06:25:44;11.00;;;5.63;;
65879;SDS011;52661;51.364;6.054;2022-09-30T06:28:10;8.52;;;4.72;;
65879;SDS011;52661;51.364;6.054;2022-09-30T06:30:36;10.55;;;4.82;;
65879;SDS011;52661;51.364;6.054;2022-09-30T06:33:01;11.40;;;4.68;;
65879;SDS011;52661;51.364;6.054;2022-09-30T06:35:26;9.50;;;5.10;;
65879;SDS011;52661;51.364;6.054;2022-09-30T06:37:52;8.85;;;4.72;;
65879;SDS011;52661;51.364;6.054;2022-09-30T06:40:18;9.63;;;4.28;;
65879;SDS011;52661;51.364;6.054;2022-09-30T06:42:45;8.95;;;4.32;;
65879;SDS011;52661;51.364;6.054;2022-09-30T06:45:12;11.30;;;4.25;;
65879;SDS011;52661;51.364;6.054;2022-09-30T06:47:37;9.95;;;4.68;;
65879;SDS011;52661;51.364;6.054;2022-09-30T06:50:03;12.07;;;5.60;;
65879;SDS011;52661;51.364;6.054;2022-09-30T06:52:29;11.25;;;4.72;;
65879;SDS011;52661;51.364;6.054;2022-09-30T06:54:54;11.83;;;5.07;;
65879;SDS011;52661;51.364;6.054;2022-09-30T06:57:23;12.15;;;5.20;;
65879;SDS011;52661;51.364;6.054;2022-09-30T06:59:50;12.57;;;5.15;;
65879;SDS011;52661;51.364;6.054;2022-09-30T07:02:16;11.85;;;5.47;;
65879;SDS011;52661;51.364;6.054;2022-09-30T07:04:41;12.60;;;5.83;;
65879;SDS011;52661;51.364;6.054;2022-09-30T07:07:06;10.82;;;5.03;;
65879;SDS011;52661;51.364;6.054;2022-09-30T07:09:32;9.57;;;5.10;;
65879;SDS011;52661;51.364;6.054;2022-09-30T07:11:57;13.93;;;6.00;;
65879;SDS011;52661;51.364;6.054;2022-09-30T07:14:23;11.27;;;4.78;;
65879;SDS011;52661;51.364;6.054;2022-09-30T07:16:49;9.88;;;5.65;;
65879;SDS011;52661;51.364;6.054;2022-09-30T07:19:16;10.82;;;5.03;;
65879;SDS011;52661;51.364;6.054;2022-09-30T07:21:46;11.45;;;5.47;;
65879;SDS011;52661;51.364;6.054;2022-09-30T07:24:12;13.70;;;6.32;;
65879;SDS011;52661;51.364;6.054;2022-09-30T07:26:37;12.27;;;5.57;;
65879;SDS011;52661;51.364;6.054;2022-09-30T07:29:04;13.82;;;5.90;;
65879;SDS011;52661;51.364;6.054;2022-09-30T07:31:31;12.88;;;6.00;;
65879;SDS011;52661;51.364;6.054;2022-09-30T07:33:58;15.60;;;6.88;;
65879;SDS011;52661;51.364;6.054;2022-09-30T07:36:24;14.52;;;7.28;;
65879;SDS011;52661;51.364;6.054;2022-09-30T07:38:54;16.17;;;6.55;;
65879;SDS011;52661;51.364;6.054;2022-09-30T07:41:24;17.85;;;7.80;;
65879;SDS011;52661;51.364;6.054;2022-09-30T07:43:51;15.70;;;7.47;;
65879;SDS011;52661;51.364;6.054;2022-09-30T07:46:21;14.98;;;7.55;;
65879;SDS011;52661;51.364;6.054;2022-09-30T07:48:49;16.55;;;8.07;;
65879;SDS011;52661;51.364;6.054;2022-09-30T07:53:56;18.92;;;9.43;;
65879;SDS011;52661;51.364;6.054;2022-09-30T07:56:28;21.25;;;9.27;;
65879;SDS011;52661;51.364;6.054;2022-09-30T07:58:58;21.10;;;9.63;;
65879;SDS011;52661;51.364;6.054;2022-09-30T08:01:25;22.33;;;9.57;;
65879;SDS011;52661;51.364;6.054;2022-09-30T08:03:53;21.55;;;9.45;;
65879;SDS011;52661;51.364;6.054;2022-09-30T08:06:21;17.77;;;9.85;;
65879;SDS011;52661;51.364;6.054;2022-09-30T08:08:48;25.20;;;10.52;;
65879;SDS011;52661;51.364;6.054;2022-09-30T08:11:15;20.92;;;9.10;;
65879;SDS011;52661;51.364;6.054;2022-09-30T08:13:41;21.27;;;9.75;;
65879;SDS011;52661;51.364;6.054;2022-09-30T08:16:07;24.08;;;10.15;;
65879;SDS011;52661;51.364;6.054;2022-09-30T08:18:32;21.98;;;10.65;;
65879;SDS011;52661;51.364;6.054;2022-09-30T08:21:04;21.27;;;10.13;;
65879;SDS011;52661;51.364;6.054;2022-09-30T08:23:30;23.45;;;9.88;;
65879;SDS011;52661;51.364;6.054;2022-09-30T08:26:15;24.20;;;10.82;;
65879;SDS011;52661;51.364;6.054;2022-09-30T08:28:41;22.15;;;10.77;;
65879;SDS011;52661;51.364;6.054;2022-09-30T08:31:11;17.70;;;7.85;;
65879;SDS011;52661;51.364;6.054;2022-09-30T08:33:38;21.73;;;11.10;;
65879;SDS011;52661;51.364;6.054;2022-09-30T08:36:06;24.67;;;11.73;;
65879;SDS011;52661;51.364;6.054;2022-09-30T08:38:34;27.63;;;11.60;;
65879;SDS011;52661;51.364;6.054;2022-09-30T08:52:48;26.25;;;10.32;;
65879;SDS011;52661;51.364;6.054;2022-09-30T08:55:18;24.27;;;10.57;;
65879;SDS011;52661;51.364;6.054;2022-09-30T08:57:46;22.42;;;10.45;;
65879;SDS011;52661;51.364;6.054;2022-09-30T09:00:13;23.75;;;11.05;;
65879;SDS011;52661;51.364;6.054;2022-09-30T09:02:45;21.35;;;10.90;;
65879;SDS011;52661;51.364;6.054;2022-09-30T09:18:51;18.40;;;9.20;;
65879;SDS011;52661;51.364;6.054;2022-09-30T09:21:43;21.13;;;11.30;;
65879;SDS011;52661;51.364;6.054;2022-09-30T09:24:28;17.67;;;9.57;;
65879;SDS011;52661;51.364;6.054;2022-09-30T09:26:57;20.30;;;10.15;;
65879;SDS011;52661;51.364;6.054;2022-09-30T09:32:23;18.33;;;9.23;;
65879;SDS011;52661;51.364;6.054;2022-09-30T09:34:52;21.65;;;9.88;;
65879;SDS011;52661;51.364;6.054;2022-09-30T09:37:38;19.50;;;9.50;;
65879;SDS011;52661;51.364;6.054;2022-09-30T09:46:14;16.52;;;8.63;;
65879;SDS011;52661;51.364;6.054;2022-09-30T09:48:44;22.25;;;10.02;;
65879;SDS011;52661;51.364;6.054;2022-09-30T09:51:18;21.55;;;9.68;;
65879;SDS011;52661;51.364;6.054;2022-09-30T09:53:51;18.00;;;8.18;;
65879;SDS011;52661;51.364;6.054;2022-09-30T09:56:23;17.10;;;9.07;;
65879;SDS011;52661;51.364;6.054;2022-09-30T09:59:09;16.60;;;8.73;;
65879;SDS011;52661;51.364;6.054;2022-09-30T10:01:36;17.63;;;9.10;;
65879;SDS011;52661;51.364;6.054;2022-09-30T10:07:00;14.60;;;8.20;;
65879;SDS011;52661;51.364;6.054;2022-09-30T10:09:37;15.75;;;7.38;;
65879;SDS011;52661;51.364;6.054;2022-09-30T10:14:29;16.53;;;7.17;;
65879;SDS011;52661;51.364;6.054;2022-09-30T10:17:02;13.65;;;6.53;;
65879;SDS011;52661;51.364;6.054;2022-09-30T10:19:30;14.25;;;7.13;;
65879;SDS011;52661;51.364;6.054;2022-09-30T10:24:32;13.73;;;6.15;;
65879;SDS011;52661;51.364;6.054;2022-09-30T10:26:58;14.52;;;7.05;;
65879;SDS011;52661;51.364;6.054;2022-09-30T10:29:28;13.23;;;6.43;;
65879;SDS011;52661;51.364;6.054;2022-09-30T10:31:55;11.73;;;5.15;;
65879;SDS011;52661;51.364;6.054;2022-09-30T10:36:49;9.63;;;5.32;;
65879;SDS011;52661;51.364;6.054;2022-09-30T10:39:23;12.43;;;5.20;;
65879;SDS011;52661;51.364;6.054;2022-09-30T10:41:51;12.07;;;5.22;;
65879;SDS011;52661;51.364;6.054;2022-09-30T10:44:24;11.60;;;5.40;;
65879;SDS011;52661;51.364;6.054;2022-09-30T10:46:50;9.75;;;4.68;;
65879;SDS011;52661;51.364;6.054;2022-09-30T10:49:34;11.15;;;5.10;;
65879;SDS011;52661;51.364;6.054;2022-09-30T10:52:04;7.38;;;4.07;;
65879;SDS011;52661;51.364;6.054;2022-09-30T10:54:47;8.98;;;4.60;;
65879;SDS011;52661;51.364;6.054;2022-09-30T10:57:17;7.07;;;3.10;;
65879;SDS011;52661;51.364;6.054;2022-09-30T10:59:46;7.97;;;3.80;;
65879;SDS011;52661;51.364;6.054;2022-09-30T11:02:21;9.05;;;4.47;;
65879;SDS011;52661;51.364;6.054;2022-09-30T11:04:59;9.88;;;4.45;;
65879;SDS011;52661;51.364;6.054;2022-09-30T11:10:38;9.30;;;3.55;;
65879;SDS011;52661;51.364;6.054;2022-09-30T11:21:32;9.00;;;3.70;;
65879;SDS011;52661;51.364;6.054;2022-09-30T11:24:04;8.13;;;4.25;;
65879;SDS011;52661;51.364;6.054;2022-09-30T11:26:51;9.68;;;3.97;;
65879;SDS011;52661;51.364;6.054;2022-09-30T11:29:35;7.70;;;4.30;;
65879;SDS011;52661;51.364;6.054;2022-09-30T11:32:45;7.47;;;3.97;;
65879;SDS011;52661;51.364;6.054;2022-09-30T11:41:16;11.25;;;4.32;;
65879;SDS011;52661;51.364;6.054;2022-09-30T11:44:00;8.70;;;4.68;;
65879;SDS011;52661;51.364;6.054;2022-09-30T11:55:04;11.35;;;5.25;;
65879;SDS011;52661;51.364;6.054;2022-09-30T11:57:54;8.55;;;4.57;;
65879;SDS011;52661;51.364;6.054;2022-09-30T12:00:21;10.77;;;4.78;;
65879;SDS011;52661;51.364;6.054;2022-09-30T12:02:50;7.35;;;3.97;;
65879;SDS011;52661;51.364;6.054;2022-09-30T12:05:26;9.65;;;5.00;;
65879;SDS011;52661;51.364;6.054;2022-09-30T12:07:57;10.25;;;4.88;;
65879;SDS011;52661;51.364;6.054;2022-09-30T12:10:30;9.35;;;4.63;;
65879;SDS011;52661;51.364;6.054;2022-09-30T12:13:05;10.57;;;4.80;;
65879;SDS011;52661;51.364;6.054;2022-09-30T12:15:36;11.45;;;5.22;;
65879;SDS011;52661;51.364;6.054;2022-09-30T12:18:08;10.35;;;4.50;;
65879;SDS011;52661;51.364;6.054;2022-09-30T12:20:40;10.95;;;4.55;;
65879;SDS011;52661;51.364;6.054;2022-09-30T12:25:59;10.63;;;4.38;;
65879;SDS011;52661;51.364;6.054;2022-09-30T12:28:34;8.98;;;3.88;;
65879;SDS011;52661;51.364;6.054;2022-09-30T12:48:13;6.85;;;3.58;;
65879;SDS011;52661;51.364;6.054;2022-09-30T12:50:52;14.38;;;3.20;;
65879;SDS011;52661;51.364;6.054;2022-09-30T12:53:27;9.00;;;2.90;;
65879;SDS011;52661;51.364;6.054;2022-09-30T12:56:01;6.32;;;3.05;;
65879;SDS011;52661;51.364;6.054;2022-09-30T12:58:37;8.45;;;3.72;;
65879;SDS011;52661;51.364;6.054;2022-09-30T13:01:24;6.78;;;3.05;;
65879;SDS011;52661;51.364;6.054;2022-09-30T13:06:26;8.18;;;3.15;;
65879;SDS011;52661;51.364;6.054;2022-09-30T13:09:21;7.45;;;2.60;;
65879;SDS011;52661;51.364;6.054;2022-09-30T13:14:28;6.03;;;2.50;;
65879;SDS011;52661;51.364;6.054;2022-09-30T13:17:20;4.90;;;2.28;;
65879;SDS011;52661;51.364;6.054;2022-09-30T13:19:52;7.45;;;1.95;;
65879;SDS011;52661;51.364;6.054;2022-09-30T13:27:34;4.07;;;1.45;;
65879;SDS011;52661;51.364;6.054;2022-09-30T13:30:29;3.72;;;1.33;;
65879;SDS011;52661;51.364;6.054;2022-09-30T13:43:24;4.70;;;1.02;;
65879;SDS011;52661;51.364;6.054;2022-09-30T13:45:55;2.70;;;1.00;;
65879;SDS011;52661;51.364;6.054;2022-09-30T13:48:24;5.65;;;1.63;;
65879;SDS011;52661;51.364;6.054;2022-09-30T13:50:54;2.17;;;0.60;;
65879;SDS011;52661;51.364;6.054;2022-09-30T13:53:30;3.15;;;1.05;;
65879;SDS011;52661;51.364;6.054;2022-09-30T13:56:04;2.45;;;0.82;;
65879;SDS011;52661;51.364;6.054;2022-09-30T14:21:18;2.00;;;0.30;;
65879;SDS011;52661;51.364;6.054;2022-09-30T14:24:13;2.45;;;0.70;;
65879;SDS011;52661;51.364;6.054;2022-09-30T14:26:51;2.63;;;0.50;;
65879;SDS011;52661;51.364;6.054;2022-09-30T14:32:11;1.60;;;0.63;;
65879;SDS011;52661;51.364;6.054;2022-09-30T14:34:39;1.98;;;0.68;;
65879;SDS011;52661;51.364;6.054;2022-09-30T14:37:06;1.52;;;0.47;;
65879;SDS011;52661;51.364;6.054;2022-09-30T14:39:39;1.95;;;0.77;;
65879;SDS011;52661;51.364;6.054;2022-09-30T14:42:04;2.28;;;0.40;;
65879;SDS011;52661;51.364;6.054;2022-09-30T14:44:31;2.55;;;0.45;;
65879;SDS011;52661;51.364;6.054;2022-09-30T14:47:00;2.53;;;0.52;;
65879;SDS011;52661;51.364;6.054;2022-09-30T14:49:30;3.15;;;0.77;;
65879;SDS011;52661;51.364;6.054;2022-09-30T14:52:01;1.08;;;0.47;;
65879;SDS011;52661;51.364;6.054;2022-09-30T14:54:28;2.22;;;0.40;;
65879;SDS011;52661;51.364;6.054;2022-09-30T14:56:56;2.63;;;0.63;;
65879;SDS011;52661;51.364;6.054;2022-09-30T15:01:51;2.05;;;0.65;;
65879;SDS011;52661;51.364;6.054;2022-09-30T15:04:38;1.17;;;0.28;;
65879;SDS011;52661;51.364;6.054;2022-09-30T15:07:08;1.40;;;0.38;;
65879;SDS011;52661;51.364;6.054;2022-09-30T15:09:36;1.83;;;0.40;;
65879;SDS011;52661;51.364;6.054;2022-09-30T15:14:44;1.27;;;0.60;;
65879;SDS011;52661;51.364;6.054;2022-09-30T15:17:16;1.90;;;0.40;;
65879;SDS011;52661;51.364;6.054;2022-09-30T15:19:46;1.10;;;0.30;;
65879;SDS011;52661;51.364;6.054;2022-09-30T15:22:14;1.67;;;0.40;;
65879;SDS011;52661;51.364;6.054;2022-09-30T15:24:41;1.90;;;0.43;;
65879;SDS011;52661;51.364;6.054;2022-09-30T15:27:13;2.80;;;0.50;;
65879;SDS011;52661;51.364;6.054;2022-09-30T15:32:57;1.27;;;0.52;;
65879;SDS011;52661;51.364;6.054;2022-09-30T15:35:26;1.75;;;0.50;;
65879;SDS011;52661;51.364;6.054;2022-09-30T15:37:53;1.08;;;0.57;;
65879;SDS011;52661;51.364;6.054;2022-09-30T15:40:31;3.58;;;0.52;;
65879;SDS011;52661;51.364;6.054;2022-09-30T15:43:13;1.27;;;0.43;;
65879;SDS011;52661;51.364;6.054;2022-09-30T15:45:41;1.00;;;0.43;;
65879;SDS011;52661;51.364;6.054;2022-09-30T15:50:38;1.00;;;0.30;;
65879;SDS011;52661;51.364;6.054;2022-09-30T15:53:22;1.88;;;0.50;;
65879;SDS011;52661;51.364;6.054;2022-09-30T15:55:55;1.40;;;0.43;;
65879;SDS011;52661;51.364;6.054;2022-09-30T16:00:50;2.70;;;0.40;;
65879;SDS011;52661;51.364;6.054;2022-09-30T16:05:45;0.97;;;0.47;;
65879;SDS011;52661;51.364;6.054;2022-09-30T16:08:45;1.33;;;0.28;;
65879;SDS011;52661;51.364;6.054;2022-09-30T16:11:08;1.52;;;0.57;;
65879;SDS011;52661;51.364;6.054;2022-09-30T16:13:35;1.33;;;0.35;;
65879;SDS011;52661;51.364;6.054;2022-09-30T16:16:09;1.38;;;0.52;;
65879;SDS011;52661;51.364;6.054;2022-09-30T16:18:42;0.95;;;0.68;;
65879;SDS011;52661;51.364;6.054;2022-09-30T16:21:22;2.60;;;0.70;;
65879;SDS011;52661;51.364;6.054;2022-09-30T16:24:11;1.33;;;0.50;;
65879;SDS011;52661;51.364;6.054;2022-09-30T16:27:19;1.67;;;0.45;;
65879;SDS011;52661;51.364;6.054;2022-09-30T16:29:46;3.00;;;0.47;;
65879;SDS011;52661;51.364;6.054;2022-09-30T16:32:11;1.80;;;0.40;;
65879;SDS011;52661;51.364;6.054;2022-09-30T16:34:38;2.35;;;0.43;;
65879;SDS011;52661;51.364;6.054;2022-09-30T16:37:11;1.45;;;0.40;;
65879;SDS011;52661;51.364;6.054;2022-09-30T16:39:38;1.38;;;0.80;;
65879;SDS011;52661;51.364;6.054;2022-09-30T16:42:04;3.15;;;0.75;;
65879;SDS011;52661;51.364;6.054;2022-09-30T16:44:30;2.35;;;0.50;;
65879;SDS011;52661;51.364;6.054;2022-09-30T16:46:59;2.22;;;0.63;;
65879;SDS011;52661;51.364;6.054;2022-09-30T16:49:25;1.40;;;0.45;;
65879;SDS011;52661;51.364;6.054;2022-09-30T16:51:50;2.17;;;0.50;;
65879;SDS011;52661;51.364;6.054;2022-09-30T16:54:16;2.07;;;0.73;;
65879;SDS011;52661;51.364;6.054;2022-09-30T16:56:41;1.98;;;0.60;;
65879;SDS011;52661;51.364;6.054;2022-09-30T16:59:12;1.20;;;0.60;;
65879;SDS011;52661;51.364;6.054;2022-09-30T17:01:39;1.83;;;0.50;;
65879;SDS011;52661;51.364;6.054;2022-09-30T17:04:05;1.50;;;0.55;;
65879;SDS011;52661;51.364;6.054;2022-09-30T17:06:31;1.75;;;0.63;;
65879;SDS011;52661;51.364;6.054;2022-09-30T17:08:57;1.52;;;0.50;;
65879;SDS011;52661;51.364;6.054;2022-09-30T17:11:24;0.93;;;0.38;;
65879;SDS011;52661;51.364;6.054;2022-09-30T17:13:52;1.35;;;0.43;;
65879;SDS011;52661;51.364;6.054;2022-09-30T17:16:17;3.23;;;0.90;;
65879;SDS011;52661;51.364;6.054;2022-09-30T17:18:42;1.52;;;0.57;;
65879;SDS011;52661;51.364;6.054;2022-09-30T17:21:08;3.47;;;0.55;;
65879;SDS011;52661;51.364;6.054;2022-09-30T17:23:33;1.83;;;0.60;;
65879;SDS011;52661;51.364;6.054;2022-09-30T17:25:59;1.73;;;0.70;;
65879;SDS011;52661;51.364;6.054;2022-09-30T17:28:24;1.73;;;0.73;;
65879;SDS011;52661;51.364;6.054;2022-09-30T17:30:49;3.23;;;0.70;;
65879;SDS011;52661;51.364;6.054;2022-09-30T17:33:15;1.95;;;0.80;;
65879;SDS011;52661;51.364;6.054;2022-09-30T17:35:43;2.15;;;0.77;;
65879;SDS011;52661;51.364;6.054;2022-09-30T17:38:10;1.55;;;0.75;;
65879;SDS011;52661;51.364;6.054;2022-09-30T17:40:37;3.50;;;0.80;;
65879;SDS011;52661;51.364;6.054;2022-09-30T17:43:21;4.95;;;0.95;;
65879;SDS011;52661;51.364;6.054;2022-09-30T17:45:47;5.18;;;1.75;;
65879;SDS011;52661;51.364;6.054;2022-09-30T17:48:15;4.65;;;1.45;;
65879;SDS011;52661;51.364;6.054;2022-09-30T17:50:42;8.60;;;2.67;;
65879;SDS011;52661;51.364;6.054;2022-09-30T17:53:12;4.10;;;1.50;;
65879;SDS011;52661;51.364;6.054;2022-09-30T17:55:43;4.03;;;1.95;;
65879;SDS011;52661;51.364;6.054;2022-09-30T17:58:11;2.95;;;1.40;;
65879;SDS011;52661;51.364;6.054;2022-09-30T18:00:37;5.65;;;1.10;;
65879;SDS011;52661;51.364;6.054;2022-09-30T18:03:03;2.33;;;1.15;;
65879;SDS011;52661;51.364;6.054;2022-09-30T18:05:29;3.47;;;1.17;;
65879;SDS011;52661;51.364;6.054;2022-09-30T18:07:55;2.47;;;1.05;;
65879;SDS011;52661;51.364;6.054;2022-09-30T18:10:21;9.48;;;2.05;;
65879;SDS011;52661;51.364;6.054;2022-09-30T18:12:46;3.10;;;1.45;;
65879;SDS011;52661;51.364;6.054;2022-09-30T18:15:13;3.13;;;1.73;;
65879;SDS011;52661;51.364;6.054;2022-09-30T18:17:40;6.30;;;1.50;;
65879;SDS011;52661;51.364;6.054;2022-09-30T18:20:06;2.88;;;0.82;;